createdAt,value
2017-04-11T00:00:31.789Z,92.22
2017-04-11T00:01:31.761Z,91.65
2017-04-11T00:02:31.801Z,91.94
2017-04-11T00:03:31.436Z,91.94
2017-04-11T00:04:31.730Z,91.84
2017-04-11T00:05:31.683Z,91.84
2017-04-11T00:06:31.353Z,91.65
2017-04-11T00:07:31.644Z,92.13
2017-04-11T00:08:31.616Z,91.94
2017-04-11T00:09:31.603Z,92.32
2017-04-11T00:10:31.592Z,92.13
2017-04-11T00:11:31.587Z,92.69
2017-04-11T00:12:31.534Z,92.6
2017-04-11T00:13:31.512Z,92.6
2017-04-11T00:14:31.502Z,92.84
2017-04-11T00:15:31.474Z,93.17
2017-04-11T00:16:31.144Z,92.84
2017-04-11T00:17:31.423Z,92.89
2017-04-11T00:18:31.413Z,92.79
2017-04-11T00:19:31.387Z,93.22
2017-04-11T00:20:31.373Z,93.32
2017-04-11T00:21:31.362Z,92.74
2017-04-11T00:22:31.343Z,93.13
2017-04-11T00:23:31.314Z,93.08
2017-04-11T00:24:31.282Z,92.84
2017-04-11T00:25:31.263Z,93.13
2017-04-11T00:26:30.933Z,92.94
2017-04-11T00:27:30.918Z,93.03
2017-04-11T00:28:31.212Z,93.17
2017-04-11T00:29:31.181Z,92.98
2017-04-11T00:30:31.153Z,92.27
2017-04-11T00:31:31.150Z,92.41
2017-04-11T00:32:31.130Z,92.32
2017-04-11T00:33:31.147Z,92.6
2017-04-11T00:34:31.072Z,92.5
2017-04-11T00:35:31.061Z,92.6
2017-04-11T00:36:31.042Z,92.89
2017-04-11T00:37:31.019Z,92.84
2017-04-11T00:38:30.992Z,92.69
2017-04-11T00:39:30.983Z,92.79
2017-04-11T00:40:30.952Z,93.13
2017-04-11T00:41:30.945Z,92.74
2017-04-11T00:42:30.907Z,92.65
2017-04-11T00:43:30.894Z,92.74
2017-04-11T00:44:30.554Z,92.98
2017-04-11T00:45:30.850Z,92.94
2017-04-11T00:46:30.516Z,92.55
2017-04-11T00:47:30.493Z,92.22
2017-04-11T00:48:30.783Z,92.41
2017-04-11T00:49:30.461Z,93.03
2017-04-11T00:50:30.422Z,92.84
2017-04-11T00:51:30.732Z,93.03
2017-04-11T00:52:30.692Z,93.51
2017-04-11T00:53:30.381Z,93.22
2017-04-11T00:54:30.345Z,92.94
2017-04-11T00:55:30.321Z,93.22
2017-04-11T00:56:30.311Z,93.03
2017-04-11T00:57:30.591Z,93.03
2017-04-11T00:58:30.653Z,93.03
2017-04-11T00:59:30.293Z,93.51
2017-04-11T01:00:30.543Z,93.6
2017-04-11T01:01:30.211Z,93.03
2017-04-11T01:02:30.494Z,93.41
2017-04-11T01:03:30.511Z,93.22
2017-04-11T01:04:30.442Z,93.03
2017-04-11T01:05:30.115Z,93.13
2017-04-11T01:06:30.405Z,92.94
2017-04-11T01:07:30.422Z,93.13
2017-04-11T01:08:30.359Z,92.84
2017-04-11T01:09:30.382Z,92.94
2017-04-11T01:10:30.014Z,92.55
2017-04-11T01:11:30.339Z,92.27
2017-04-11T01:12:30.279Z,92.74
2017-04-11T01:13:29.957Z,92.84
2017-04-11T01:14:29.930Z,92.94
2017-04-11T01:15:30.251Z,92.84
2017-04-11T01:16:29.882Z,92.94
2017-04-11T01:17:30.161Z,93.03
2017-04-11T01:18:30.192Z,92.94
2017-04-11T01:19:30.114Z,92.94
2017-04-11T01:20:29.799Z,92.74
2017-04-11T01:21:30.084Z,93.03
2017-04-11T01:22:29.753Z,93.03
2017-04-11T01:23:30.054Z,93.13
2017-04-11T01:24:30.035Z,93.22
2017-04-11T01:25:30.002Z,93.22
2017-04-11T01:26:30.001Z,93.6
2017-04-11T01:27:29.951Z,93.51
2017-04-11T01:28:29.982Z,93.7
2017-04-11T01:29:29.922Z,93.7
2017-04-11T01:30:29.902Z,93.79
2017-04-11T01:31:29.565Z,93.89
2017-04-11T01:32:29.576Z,93.79
2017-04-11T01:33:29.522Z,93.79
2017-04-11T01:34:29.502Z,93.79
2017-04-11T01:35:29.789Z,93.7
2017-04-11T01:36:29.812Z,93.51
2017-04-11T01:37:29.444Z,93.51
2017-04-11T01:38:29.725Z,93.41
2017-04-11T01:39:29.692Z,93.7
2017-04-11T01:40:29.683Z,93.89
2017-04-11T01:41:29.662Z,94.46
2017-04-11T01:42:29.641Z,94.46
2017-04-11T01:43:29.315Z,94.37
2017-04-11T01:44:29.594Z,93.98
2017-04-11T01:45:29.264Z,94.37
2017-04-11T01:46:29.246Z,94.08
2017-04-11T01:47:29.544Z,94.08
2017-04-11T01:48:29.514Z,93.89
2017-04-11T01:49:29.182Z,94.08
2017-04-11T01:50:29.153Z,93.98
2017-04-11T01:51:29.441Z,94.17
2017-04-11T01:52:29.119Z,93.89
2017-04-11T01:53:29.103Z,94.17
2017-04-11T01:54:29.083Z,94.46
2017-04-11T01:55:29.404Z,94.27
2017-04-11T01:56:29.341Z,94.37
2017-04-11T01:57:29.017Z,94.17
2017-04-11T01:58:29.302Z,94.46
2017-04-11T01:59:29.379Z,94.37
2017-04-11T02:00:29.257Z,94.56
2017-04-11T02:01:28.942Z,94.65
2017-04-11T02:02:29.211Z,94.93
2017-04-11T02:03:29.196Z,94.84
2017-04-11T02:04:29.167Z,94.56
2017-04-11T02:05:29.147Z,95.12
2017-04-11T02:06:29.134Z,94.93
2017-04-11T02:07:29.101Z,94.74
2017-04-11T02:08:29.081Z,94.84
2017-04-11T02:09:29.062Z,95.32
2017-04-11T02:10:28.744Z,95.46
2017-04-11T02:11:29.032Z,95.32
2017-04-11T02:12:29.001Z,95.51
2017-04-11T02:13:29.073Z,95.51
2017-04-11T02:14:28.955Z,95.51
2017-04-11T02:15:28.942Z,95.22
2017-04-11T02:16:28.911Z,95.32
2017-04-11T02:17:29.022Z,95.22
2017-04-11T02:18:28.873Z,94.93
2017-04-11T02:19:28.592Z,94.65
2017-04-11T02:20:28.512Z,94.74
2017-04-11T02:21:28.925Z,94.65
2017-04-11T02:22:28.793Z,94.74
2017-04-11T02:23:28.523Z,95.12
2017-04-11T02:24:28.745Z,95.03
2017-04-11T02:25:28.724Z,95.22
2017-04-11T02:26:28.702Z,95.12
2017-04-11T02:27:28.814Z,95.51
2017-04-11T02:28:28.653Z,96.03
2017-04-11T02:29:28.373Z,96.17
2017-04-11T02:30:28.609Z,96.08
2017-04-11T02:31:28.599Z,95.7
2017-04-11T02:32:28.563Z,95.79
2017-04-11T02:33:28.246Z,95.51
2017-04-11T02:34:28.533Z,95.32
2017-04-11T02:35:28.503Z,95.51
2017-04-11T02:36:28.483Z,95.51
2017-04-11T02:37:28.494Z,95.6
2017-04-11T02:38:28.132Z,96.08
2017-04-11T02:39:28.422Z,96.17
2017-04-11T02:40:28.403Z,95.79
2017-04-11T02:41:28.382Z,95.75
2017-04-11T02:42:28.364Z,96.31
2017-04-11T02:43:28.035Z,95.84
2017-04-11T02:44:28.004Z,96.08
2017-04-11T02:45:27.987Z,96.46
2017-04-11T02:46:28.272Z,96.46
2017-04-11T02:47:28.244Z,96.08
2017-04-11T02:48:28.241Z,96.17
2017-04-11T02:49:28.211Z,96.22
2017-04-11T02:50:28.186Z,96.27
2017-04-11T02:51:28.163Z,95.98
2017-04-11T02:52:27.834Z,95.79
2017-04-11T02:53:27.814Z,95.79
2017-04-11T02:54:28.098Z,95.79
2017-04-11T02:55:28.084Z,95.7
2017-04-11T02:56:27.750Z,95.89
2017-04-11T02:57:27.723Z,95.89
2017-04-11T02:58:28.012Z,96.51
2017-04-11T02:59:27.993Z,96.22
2017-04-11T03:00:27.983Z,95.89
2017-04-11T03:01:27.945Z,95.98
2017-04-11T03:02:27.622Z,95.98
2017-04-11T03:03:27.907Z,95.7
2017-04-11T03:04:27.883Z,96.08
2017-04-11T03:05:27.865Z,96.27
2017-04-11T03:06:27.532Z,96.27
2017-04-11T03:07:27.835Z,96.08
2017-04-11T03:08:27.502Z,96.08
2017-04-11T03:09:27.784Z,96.46
2017-04-11T03:10:27.762Z,96.08
2017-04-11T03:11:27.433Z,96.36
2017-04-11T03:12:27.713Z,96.17
2017-04-11T03:13:27.388Z,95.79
2017-04-11T03:14:27.670Z,95.98
2017-04-11T03:15:27.663Z,95.79
2017-04-11T03:16:27.647Z,96.08
2017-04-11T03:17:27.620Z,96.17
2017-04-11T03:18:27.582Z,96.17
2017-04-11T03:19:27.269Z,96.17
2017-04-11T03:20:27.545Z,95.98
2017-04-11T03:21:27.216Z,96.17
2017-04-11T03:22:27.618Z,96.17
2017-04-11T03:23:27.476Z,96.36
2017-04-11T03:24:27.470Z,96.36
2017-04-11T03:25:27.125Z,96.36
2017-04-11T03:26:27.102Z,96.36
2017-04-11T03:27:27.393Z,96.75
2017-04-11T03:28:27.064Z,96.75
2017-04-11T03:29:27.388Z,96.75
2017-04-11T03:30:27.023Z,96.51
2017-04-11T03:31:27.008Z,96.94
2017-04-11T03:32:27.294Z,96.75
2017-04-11T03:33:27.262Z,96.36
2017-04-11T03:34:27.283Z,96.55
2017-04-11T03:35:26.913Z,96.36
2017-04-11T03:36:26.892Z,96.36
2017-04-11T03:37:26.873Z,96.46
2017-04-11T03:38:27.164Z,96.36
2017-04-11T03:39:27.136Z,96.75
2017-04-11T03:40:27.113Z,96.55
2017-04-11T03:41:27.093Z,97.51
2017-04-11T03:42:27.074Z,97.08
2017-04-11T03:43:27.053Z,97.27
2017-04-11T03:44:26.725Z,97.65
2017-04-11T03:45:26.703Z,97.27
2017-04-11T03:46:26.993Z,97.46
2017-04-11T03:47:26.960Z,97.65
2017-04-11T03:48:26.944Z,97.55
2017-04-11T03:49:26.931Z,97.27
2017-04-11T03:50:26.904Z,97.27
2017-04-11T03:51:26.870Z,97.27
2017-04-11T03:52:26.852Z,97.65
2017-04-11T03:53:26.833Z,97.17
2017-04-11T03:54:26.509Z,97.27
2017-04-11T03:55:26.489Z,97.08
2017-04-11T03:56:26.776Z,97.22
2017-04-11T03:57:26.784Z,97.41
2017-04-11T03:58:26.724Z,97.13
2017-04-11T03:59:26.404Z,97.22
2017-04-11T04:00:26.684Z,97.55
2017-04-11T04:01:26.744Z,97.13
2017-04-11T04:02:26.344Z,97.51
2017-04-11T04:03:26.623Z,97.13
2017-04-11T04:04:26.594Z,96.7
2017-04-11T04:05:26.585Z,96.55
2017-04-11T04:06:26.244Z,96.84
2017-04-11T04:07:26.223Z,96.65
2017-04-11T04:08:26.513Z,96.7
2017-04-11T04:09:26.493Z,97.08
2017-04-11T04:10:26.523Z,97.13
2017-04-11T04:11:26.452Z,97.27
2017-04-11T04:12:26.124Z,97.27
2017-04-11T04:13:26.097Z,97.74
2017-04-11T04:14:26.385Z,97.65
2017-04-11T04:15:26.054Z,97.27
2017-04-11T04:16:26.345Z,97.27
2017-04-11T04:17:26.019Z,97.55
2017-04-11T04:18:26.313Z,97.27
2017-04-11T04:19:25.966Z,97.17
2017-04-11T04:20:26.264Z,97.27
2017-04-11T04:21:26.233Z,96.98
2017-04-11T04:22:26.214Z,97.17
2017-04-11T04:23:25.883Z,97.08
2017-04-11T04:24:26.182Z,96.98
2017-04-11T04:25:26.230Z,97.17
2017-04-11T04:26:26.138Z,96.94
2017-04-11T04:27:26.104Z,97.17
2017-04-11T04:28:26.086Z,97.17
2017-04-11T04:29:25.761Z,97.46
2017-04-11T04:30:25.737Z,96.89
2017-04-11T04:31:26.078Z,97.27
2017-04-11T04:32:25.693Z,97.17
2017-04-11T04:33:25.983Z,97.55
2017-04-11T04:34:25.984Z,97.27
2017-04-11T04:35:25.955Z,97.36
2017-04-11T04:36:25.604Z,97.55
2017-04-11T04:37:25.893Z,97.93
2017-04-11T04:38:25.875Z,98.32
2017-04-11T04:39:25.859Z,98.03
2017-04-11T04:40:25.819Z,98.13
2017-04-11T04:41:25.804Z,98.6
2017-04-11T04:42:25.474Z,98.32
2017-04-11T04:43:25.453Z,98.41
2017-04-11T04:44:25.735Z,98.41
2017-04-11T04:45:25.405Z,98.5
2017-04-11T04:46:25.695Z,97.93
2017-04-11T04:47:25.373Z,97.55
2017-04-11T04:48:25.660Z,97.93
2017-04-11T04:49:25.633Z,97.93
2017-04-11T04:50:25.305Z,98.5
2017-04-11T04:51:25.596Z,98.5
2017-04-11T04:52:25.564Z,98.41
2017-04-11T04:53:25.244Z,98.32
2017-04-11T04:54:25.529Z,98.41
2017-04-11T04:55:25.516Z,98.5
2017-04-11T04:56:25.515Z,98.41
2017-04-11T04:57:25.452Z,99.08
2017-04-11T04:58:25.135Z,99.08
2017-04-11T04:59:25.414Z,98.5
2017-04-11T05:00:25.394Z,98.5
2017-04-11T05:01:25.071Z,99.08
2017-04-11T05:02:25.408Z,98.32
2017-04-11T05:03:25.334Z,98.22
2017-04-11T05:04:25.044Z,98.22
2017-04-11T05:05:25.286Z,98.6
2017-04-11T05:06:25.396Z,98.5
2017-04-11T05:07:25.249Z,98.32
2017-04-11T05:08:25.244Z,98.41
2017-04-11T05:09:24.897Z,98.5
2017-04-11T05:10:25.226Z,98.22
2017-04-11T05:11:25.154Z,98.32
2017-04-11T05:12:25.194Z,98.03
2017-04-11T05:13:24.802Z,97.93
2017-04-11T05:14:24.806Z,97.93
2017-04-11T05:15:25.075Z,97.93
2017-04-11T05:16:25.054Z,98.22
2017-04-11T05:17:25.026Z,98.6
2017-04-11T05:18:25.004Z,97.93
2017-04-11T05:19:24.985Z,97.55
2017-04-11T05:20:24.964Z,97.84
2017-04-11T05:21:24.947Z,97.36
2017-04-11T05:22:24.976Z,97.99
2017-04-11T05:23:24.606Z,97.31
2017-04-11T05:24:24.953Z,97.31
2017-04-11T05:25:24.870Z,97.31
2017-04-11T05:26:24.622Z,97.6
2017-04-11T05:27:24.916Z,97.41
2017-04-11T05:28:24.857Z,97.31
2017-04-11T05:29:24.775Z,97.6
2017-04-11T05:30:24.826Z,97.41
2017-04-11T05:31:24.417Z,97.51
2017-04-11T05:32:24.717Z,97.51
2017-04-11T05:33:24.675Z,97.7
2017-04-11T05:34:24.452Z,97.84
2017-04-11T05:35:24.346Z,98.22
2017-04-11T05:36:24.334Z,98.55
2017-04-11T05:37:24.344Z,98.22
2017-04-11T05:38:24.282Z,98.13
2017-04-11T05:39:24.251Z,98.69
2017-04-11T05:40:24.545Z,98.69
2017-04-11T05:41:24.523Z,99.08
2017-04-11T05:42:24.185Z,98.74
2017-04-11T05:43:24.172Z,99.08
2017-04-11T05:44:24.152Z,98.98
2017-04-11T05:45:24.432Z,98.65
2017-04-11T05:46:24.511Z,98.94
2017-04-11T05:47:24.390Z,98.98
2017-04-11T05:48:24.460Z,98.98
2017-04-11T05:49:24.341Z,98.98
2017-04-11T05:50:24.325Z,98.69
2017-04-11T05:51:24.304Z,99.08
2017-04-11T05:52:24.285Z,98.88
2017-04-11T05:53:24.255Z,99.03
2017-04-11T05:54:24.246Z,99.13
2017-04-11T05:55:24.213Z,98.55
2017-04-11T05:56:24.206Z,98.46
2017-04-11T05:57:24.184Z,98.36
2017-04-11T05:58:24.143Z,99.13
2017-04-11T05:59:24.127Z,98.27
2017-04-11T06:00:24.104Z,98.27
2017-04-11T06:01:24.107Z,99.13
2017-04-11T06:02:24.067Z,98.84
2017-04-11T06:03:24.042Z,98.46
2017-04-11T06:04:24.008Z,98.46
2017-04-11T06:05:24.006Z,98.46
2017-04-11T06:06:23.975Z,98.36
2017-04-11T06:07:23.659Z,98.27
2017-04-11T06:08:23.627Z,98.46
2017-04-11T06:09:23.915Z,98.46
2017-04-11T06:10:23.591Z,97.99
2017-04-11T06:11:23.872Z,97.79
2017-04-11T06:12:23.852Z,97.6
2017-04-11T06:13:23.824Z,97.89
2017-04-11T06:14:23.815Z,98.18
2017-04-11T06:15:23.500Z,98.46
2017-04-11T06:16:23.771Z,98.46
2017-04-11T06:17:23.743Z,98.36
2017-04-11T06:18:23.420Z,98.55
2017-04-11T06:19:23.703Z,98.36
2017-04-11T06:20:23.703Z,98.46
2017-04-11T06:21:23.672Z,98.94
2017-04-11T06:22:23.633Z,98.84
2017-04-11T06:23:23.322Z,99.03
2017-04-11T06:24:23.603Z,98.27
2017-04-11T06:25:23.582Z,98.46
2017-04-11T06:26:23.242Z,98.18
2017-04-11T06:27:23.534Z,98.18
2017-04-11T06:28:23.543Z,98.46
2017-04-11T06:29:23.492Z,97.89
2017-04-11T06:30:23.477Z,97.89
2017-04-11T06:31:23.454Z,97.99
2017-04-11T06:32:23.440Z,97.51
2017-04-11T06:33:23.094Z,97.6
2017-04-11T06:34:23.385Z,97.99
2017-04-11T06:35:23.373Z,97.79
2017-04-11T06:36:23.348Z,97.79
2017-04-11T06:37:23.322Z,97.7
2017-04-11T06:38:23.300Z,97.22
2017-04-11T06:39:23.284Z,97.13
2017-04-11T06:40:23.253Z,97.31
2017-04-11T06:41:23.252Z,97.46
2017-04-11T06:42:23.218Z,97.08
2017-04-11T06:43:23.200Z,97.36
2017-04-11T06:44:22.902Z,96.8
2017-04-11T06:45:23.160Z,95.84
2017-04-11T06:46:23.132Z,95.94
2017-04-11T06:47:23.113Z,96.32
2017-04-11T06:48:23.092Z,96.7
2017-04-11T06:49:23.085Z,96.7
2017-04-11T06:50:23.063Z,96.51
2017-04-11T06:51:23.042Z,96.22
2017-04-11T06:52:22.704Z,96.89
2017-04-11T06:53:22.983Z,96.89
2017-04-11T06:54:22.665Z,96.7
2017-04-11T06:55:22.941Z,96.98
2017-04-11T06:56:22.934Z,97.17
2017-04-11T06:57:22.604Z,96.12
2017-04-11T06:58:22.904Z,95.65
2017-04-11T06:59:22.554Z,95.94
2017-04-11T07:00:22.840Z,96.03
2017-04-11T07:01:22.821Z,95.75
2017-04-11T07:02:22.801Z,96.6
2017-04-11T07:03:22.782Z,97.56
2017-04-11T07:04:22.774Z,97.56
2017-04-11T07:05:22.742Z,96.8
2017-04-11T07:06:22.720Z,96.7
2017-04-11T07:07:22.384Z,96.22
2017-04-11T07:08:22.486Z,95.65
2017-04-11T07:09:22.345Z,94.84
2017-04-11T07:10:22.630Z,94.46
2017-04-11T07:11:22.612Z,94.56
2017-04-11T07:12:22.293Z,94.74
2017-04-11T07:13:22.263Z,94.46
2017-04-11T07:14:22.253Z,94.37
2017-04-11T07:15:22.232Z,95.17
2017-04-11T07:16:22.199Z,95.84
2017-04-11T07:17:22.193Z,95.56
2017-04-11T07:18:22.155Z,95.46
2017-04-11T07:19:22.451Z,94.93
2017-04-11T07:20:22.435Z,95.22
2017-04-11T07:21:22.104Z,95.27
2017-04-11T07:22:22.586Z,95.84
2017-04-11T07:23:22.363Z,95.56
2017-04-11T07:24:22.349Z,96.41
2017-04-11T07:25:22.319Z,96.41
2017-04-11T07:26:22.316Z,96.6
2017-04-11T07:27:21.978Z,96.6
2017-04-11T07:28:22.263Z,96.89
2017-04-11T07:29:22.230Z,97.46
2017-04-11T07:30:22.220Z,97.08
2017-04-11T07:31:21.897Z,97.03
2017-04-11T07:32:22.175Z,97.17
2017-04-11T07:33:22.154Z,97.46
2017-04-11T07:34:21.835Z,97.27
2017-04-11T07:35:22.123Z,97.51
2017-04-11T07:36:22.085Z,97.6
2017-04-11T07:37:22.069Z,97.22
2017-04-11T07:38:21.746Z,97.6
2017-04-11T07:39:21.726Z,97.27
2017-04-11T07:40:22.008Z,97.46
2017-04-11T07:41:21.697Z,97.27
2017-04-11T07:42:21.964Z,97.17
2017-04-11T07:43:21.973Z,97.46
2017-04-11T07:44:21.614Z,96.7
2017-04-11T07:45:21.919Z,96.12
2017-04-11T07:46:21.889Z,96.22
2017-04-11T07:47:21.865Z,96.22
2017-04-11T07:48:21.536Z,95.84
2017-04-11T07:49:21.831Z,95.94
2017-04-11T07:50:21.815Z,95.94
2017-04-11T07:51:21.787Z,95.56
2017-04-11T07:52:21.461Z,95.65
2017-04-11T07:53:21.740Z,95.94
2017-04-11T07:54:21.723Z,95.65
2017-04-11T07:55:21.703Z,95.94
2017-04-11T07:56:21.689Z,95.7
2017-04-11T07:57:21.656Z,95.32
2017-04-11T07:58:21.661Z,95.32
2017-04-11T07:59:21.316Z,95.12
2017-04-11T08:00:21.602Z,95.89
2017-04-11T08:01:21.584Z,95.41
2017-04-11T08:02:21.570Z,95.32
2017-04-11T08:03:21.552Z,94.93
2017-04-11T08:04:21.520Z,95.03
2017-04-11T08:05:21.504Z,94.93
2017-04-11T08:06:21.474Z,95.32
2017-04-11T08:07:21.474Z,95.98
2017-04-11T08:08:21.132Z,95.84
2017-04-11T08:09:21.418Z,95.65
2017-04-11T08:10:21.096Z,95.7
2017-04-11T08:11:21.373Z,95.61
2017-04-11T08:12:21.061Z,95.12
2017-04-11T08:13:21.333Z,94.84
2017-04-11T08:14:21.324Z,95.41
2017-04-11T08:15:21.289Z,95.65
2017-04-11T08:16:21.274Z,95.7
2017-04-11T08:17:21.353Z,95.7
2017-04-11T08:18:21.244Z,95.61
2017-04-11T08:19:20.904Z,95.22
2017-04-11T08:20:21.203Z,94.74
2017-04-11T08:21:20.865Z,94.93
2017-04-11T08:22:20.846Z,95.32
2017-04-11T08:23:21.135Z,95.79
2017-04-11T08:24:20.820Z,96.36
2017-04-11T08:25:20.803Z,95.32
2017-04-11T08:26:21.093Z,95.37
2017-04-11T08:27:21.053Z,94.79
2017-04-11T08:28:21.032Z,95.41
2017-04-11T08:29:21.014Z,95.51
2017-04-11T08:30:21.061Z,95.27
2017-04-11T08:31:20.983Z,94.41
2017-04-11T08:32:20.952Z,93.46
2017-04-11T08:33:20.947Z,93.51
2017-04-11T08:34:20.617Z,92.83
2017-04-11T08:35:20.896Z,92.65
2017-04-11T08:36:20.606Z,92.26
2017-04-11T08:37:20.849Z,92.83
2017-04-11T08:38:20.841Z,92.36
2017-04-11T08:39:20.953Z,92.55
2017-04-11T08:40:20.894Z,91.69
2017-04-11T08:41:20.772Z,91.21
2017-04-11T08:42:20.781Z,91.12
2017-04-11T08:43:20.430Z,91.07
2017-04-11T08:44:20.783Z,90.4
2017-04-11T08:45:20.703Z,90.21
2017-04-11T08:46:20.683Z,89.54
2017-04-11T08:47:20.664Z,89.54
2017-04-11T08:48:20.645Z,90.11
2017-04-11T08:49:20.628Z,90.78
2017-04-11T08:50:20.613Z,90.78
2017-04-11T08:51:20.296Z,90.69
2017-04-11T08:52:20.586Z,89.83
2017-04-11T08:53:20.552Z,89.73
2017-04-11T08:54:20.222Z,88.59
2017-04-11T08:55:20.523Z,88.15
2017-04-11T08:56:20.496Z,88.49
2017-04-11T08:57:20.481Z,88.4
2017-04-11T08:58:20.457Z,88.59
2017-04-11T08:59:20.125Z,88.87
2017-04-11T09:00:20.105Z,88.59
2017-04-11T09:01:20.392Z,88.11
2017-04-11T09:02:20.385Z,87.92
2017-04-11T09:03:20.373Z,87.92
2017-04-11T09:04:20.035Z,87.92
2017-04-11T09:05:20.336Z,87.82
2017-04-11T09:06:20.313Z,87.15
2017-04-11T09:07:20.283Z,87.11
2017-04-11T09:08:19.964Z,87.3
2017-04-11T09:09:20.254Z,87.49
2017-04-11T09:10:20.233Z,87.59
2017-04-11T09:11:20.222Z,87.11
2017-04-11T09:12:19.880Z,86.92
2017-04-11T09:13:19.877Z,86.96
2017-04-11T09:14:20.144Z,86.39
2017-04-11T09:15:20.153Z,85.19
2017-04-11T09:16:20.125Z,83.13
2017-04-11T09:17:20.104Z,82.94
2017-04-11T09:18:20.093Z,82.7
2017-04-11T09:19:19.773Z,81.55
2017-04-11T09:20:20.056Z,81.21
2017-04-11T09:21:19.766Z,81.07
2017-04-11T09:22:20.035Z,82.18
2017-04-11T09:23:20.003Z,82.56
2017-04-11T09:24:19.993Z,82.31
2017-04-11T09:25:19.975Z,81.07
2017-04-11T09:26:19.683Z,79.96
2017-04-11T09:27:19.636Z,79.49
2017-04-11T09:28:19.626Z,78.09
2017-04-11T09:29:19.906Z,77.42
2017-04-11T09:30:19.897Z,77.67
2017-04-11T09:31:19.583Z,78.74
2017-04-11T09:32:19.866Z,79.25
2017-04-11T09:33:19.553Z,78.87
2017-04-11T09:34:19.836Z,78.78
2017-04-11T09:35:19.824Z,77.38
2017-04-11T09:36:19.803Z,78.01
2017-04-11T09:37:19.503Z,78.3
2017-04-11T09:38:19.795Z,77.95
2017-04-11T09:39:19.783Z,77.51
2017-04-11T09:40:19.770Z,76.12
2017-04-11T09:41:19.752Z,74.52
2017-04-11T09:42:19.726Z,73.03
2017-04-11T09:43:19.715Z,70.35
2017-04-11T09:44:19.711Z,66.93
2017-04-11T09:45:19.704Z,64.98
2017-04-11T09:46:19.679Z,64.59
2017-04-11T09:47:19.685Z,63.64
2017-04-11T09:48:19.665Z,64.59
2017-04-11T09:49:19.339Z,64.69
2017-04-11T09:50:19.639Z,64.43
2017-04-11T09:51:19.613Z,64.09
2017-04-11T09:52:19.620Z,64.76
2017-04-11T09:53:19.595Z,63.22
2017-04-11T09:54:19.593Z,62.84
2017-04-11T09:55:19.579Z,62.87
2017-04-11T09:56:19.566Z,62.96
2017-04-11T09:57:19.565Z,62.87
2017-04-11T09:58:19.546Z,61.65
2017-04-11T09:59:19.546Z,61.46
2017-04-11T10:00:19.530Z,61.27
2017-04-11T10:01:19.210Z,60.02
2017-04-11T10:02:19.514Z,60.31
2017-04-11T10:03:19.495Z,59.44
2017-04-11T10:04:19.527Z,60.05
2017-04-11T10:05:19.491Z,59.48
2017-04-11T10:06:19.473Z,60.15
2017-04-11T10:07:19.457Z,61.08
2017-04-11T10:08:19.454Z,60.79
2017-04-11T10:09:19.432Z,60.72
2017-04-11T10:10:19.207Z,60.82
2017-04-11T10:11:19.425Z,60.72
2017-04-11T10:12:19.394Z,60.92
2017-04-11T10:13:19.387Z,61.18
2017-04-11T10:14:19.477Z,60.79
2017-04-11T10:15:19.368Z,59.77
2017-04-11T10:16:19.082Z,60.12
2017-04-11T10:17:19.337Z,61.79
2017-04-11T10:18:19.376Z,62.52
2017-04-11T10:19:19.313Z,63.54
2017-04-11T10:20:19.082Z,63.67
2017-04-11T10:21:19.278Z,63.76
2017-04-11T10:22:18.970Z,63.19
2017-04-11T10:23:19.244Z,63.19
2017-04-11T10:24:19.244Z,63
2017-04-11T10:25:19.212Z,62.62
2017-04-11T10:26:18.891Z,62.55
2017-04-11T10:27:19.213Z,61.6
2017-04-11T10:28:19.183Z,61.63
2017-04-11T10:29:18.864Z,61.43
2017-04-11T10:30:18.857Z,61.43
2017-04-11T10:31:19.169Z,61.08
2017-04-11T10:32:18.813Z,61.4
2017-04-11T10:33:19.104Z,61.31
2017-04-11T10:34:19.085Z,61.6
2017-04-11T10:35:19.073Z,61.5
2017-04-11T10:36:19.052Z,61.4
2017-04-11T10:37:19.056Z,61.4
2017-04-11T10:38:19.025Z,61.31
2017-04-11T10:39:19.075Z,61.66
2017-04-11T10:40:18.684Z,61.85
2017-04-11T10:41:18.982Z,61.57
2017-04-11T10:42:18.976Z,61.6
2017-04-11T10:43:18.946Z,61.5
2017-04-11T10:44:18.931Z,61.57
2017-04-11T10:45:18.916Z,61.94
2017-04-11T10:46:18.906Z,62.23
2017-04-11T10:47:18.582Z,63.1
2017-04-11T10:48:18.566Z,62.81
2017-04-11T10:49:18.552Z,63.16
2017-04-11T10:50:18.832Z,63.54
2017-04-11T10:51:18.883Z,63.48
2017-04-11T10:52:18.803Z,64.22
2017-04-11T10:53:18.803Z,64.5
2017-04-11T10:54:18.773Z,64.5
2017-04-11T10:55:18.814Z,64.98
2017-04-11T10:56:18.433Z,64.69
2017-04-11T10:57:18.724Z,64.69
2017-04-11T10:58:18.713Z,64.98
2017-04-11T10:59:18.693Z,64.98
2017-04-11T11:00:18.365Z,65.42
2017-04-11T11:01:18.673Z,65.52
2017-04-11T11:02:18.333Z,65.81
2017-04-11T11:03:18.622Z,65.81
2017-04-11T11:04:18.603Z,65.81
2017-04-11T11:05:18.594Z,65.55
2017-04-11T11:06:18.584Z,65.17
2017-04-11T11:07:18.262Z,65.81
2017-04-11T11:08:18.556Z,66.47
2017-04-11T11:09:18.214Z,66.67
2017-04-11T11:10:18.504Z,66.09
2017-04-11T11:11:18.189Z,65.81
2017-04-11T11:12:18.170Z,66.09
2017-04-11T11:13:18.146Z,65.74
2017-04-11T11:14:18.464Z,65.74
2017-04-11T11:15:18.413Z,65.65
2017-04-11T11:16:18.105Z,64.79
2017-04-11T11:17:18.403Z,64.88
2017-04-11T11:18:18.384Z,64.82
2017-04-11T11:19:18.356Z,64.43
2017-04-11T11:20:18.345Z,63.76
2017-04-11T11:21:18.349Z,62.65
2017-04-11T11:22:18.303Z,62.17
2017-04-11T11:23:18.295Z,62.93
2017-04-11T11:24:18.275Z,62.93
2017-04-11T11:25:18.266Z,62.84
2017-04-11T11:26:17.936Z,62.84
2017-04-11T11:27:18.220Z,63.03
2017-04-11T11:28:18.213Z,63.03
2017-04-11T11:29:18.194Z,62.74
2017-04-11T11:30:18.176Z,62.1
2017-04-11T11:31:18.172Z,61.43
2017-04-11T11:32:18.142Z,61.05
2017-04-11T11:33:18.126Z,60.22
2017-04-11T11:34:17.813Z,59.36
2017-04-11T11:35:18.097Z,59.36
2017-04-11T11:36:18.079Z,59.06
2017-04-11T11:37:18.066Z,59.06
2017-04-11T11:38:18.060Z,59.39
2017-04-11T11:39:18.086Z,59.87
2017-04-11T11:40:18.035Z,60.35
2017-04-11T11:41:17.693Z,60.93
2017-04-11T11:42:17.981Z,60.86
2017-04-11T11:43:17.974Z,60.41
2017-04-11T11:44:17.967Z,60.05
2017-04-11T11:45:17.947Z,59.89
2017-04-11T11:46:17.942Z,59.12
2017-04-11T11:47:17.921Z,58.48
2017-04-11T11:48:17.602Z,58.17
2017-04-11T11:49:17.888Z,57.9
2017-04-11T11:50:17.875Z,58.39
2017-04-11T11:51:17.851Z,58
2017-04-11T11:52:17.535Z,58.48
2017-04-11T11:53:17.841Z,58.74
2017-04-11T11:54:17.816Z,59.58
2017-04-11T11:55:17.802Z,59.93
2017-04-11T11:56:17.787Z,60.03
2017-04-11T11:57:17.763Z,60.03
2017-04-11T11:58:17.763Z,60.6
2017-04-11T11:59:17.747Z,61.21
2017-04-11T12:00:17.718Z,60.72
2017-04-11T12:01:17.713Z,60.72
2017-04-11T12:02:17.700Z,60.44
2017-04-11T12:03:17.725Z,60.63
2017-04-11T12:04:17.666Z,61.4
2017-04-11T12:05:17.751Z,61.08
2017-04-11T12:06:17.635Z,60.6
2017-04-11T12:07:17.635Z,61.43
2017-04-11T12:08:17.296Z,61.66
2017-04-11T12:09:17.296Z,61.18
2017-04-11T12:10:17.570Z,60.99
2017-04-11T12:11:17.572Z,60.79
2017-04-11T12:12:17.543Z,60.7
2017-04-11T12:13:17.645Z,61.3
2017-04-11T12:14:17.215Z,61.37
2017-04-11T12:15:17.503Z,61.24
2017-04-11T12:16:17.493Z,61.88
2017-04-11T12:17:17.258Z,62.74
2017-04-11T12:18:17.146Z,62.55
2017-04-11T12:19:17.455Z,62.55
2017-04-11T12:20:17.434Z,62.2
2017-04-11T12:21:17.493Z,62.2
2017-04-11T12:22:17.400Z,62.2
2017-04-11T12:23:17.388Z,63.03
2017-04-11T12:24:17.376Z,64.18
2017-04-11T12:25:17.354Z,65.2
2017-04-11T12:26:17.346Z,65.01
2017-04-11T12:27:17.382Z,64.56
2017-04-11T12:28:17.358Z,64.28
2017-04-11T12:29:17.312Z,64.28
2017-04-11T12:30:17.323Z,64.66
2017-04-11T12:31:17.264Z,64.95
2017-04-11T12:32:17.286Z,64.37
2017-04-11T12:33:17.319Z,64.76
2017-04-11T12:34:17.211Z,64.56
2017-04-11T12:35:17.220Z,64.66
2017-04-11T12:36:16.875Z,65.05
2017-04-11T12:37:17.185Z,65.2
2017-04-11T12:38:17.162Z,65.58
2017-04-11T12:39:17.129Z,65.78
2017-04-11T12:40:17.103Z,65.78
2017-04-11T12:41:17.115Z,66.16
2017-04-11T12:42:17.093Z,66.06
2017-04-11T12:43:17.102Z,66.16
2017-04-11T12:44:17.124Z,66.16
2017-04-11T12:45:17.254Z,66.45
2017-04-11T12:46:17.163Z,66.74
2017-04-11T12:47:16.689Z,66.61
2017-04-11T12:48:17.012Z,66.74
2017-04-11T12:49:16.968Z,67.08
2017-04-11T12:50:16.944Z,67.08
2017-04-11T12:51:16.930Z,67.56
2017-04-11T12:52:16.943Z,68.04
2017-04-11T12:53:16.895Z,68.52
2017-04-11T12:54:16.908Z,68.52
2017-04-11T12:55:16.555Z,69.64